createdAt,value
2023-05-23T16:01:48.909Z,16.00
2023-05-23T16:03:21.302Z,10.60
2023-05-23T16:04:53.252Z,12.40
2023-05-23T16:06:25.596Z,11.20
2023-05-23T16:07:57.937Z,13.00
2023-05-23T16:09:30.022Z,10.60
2023-05-23T16:11:01.886Z,10.60
2023-05-23T16:12:33.812Z,11.00
2023-05-23T16:14:06.470Z,13.40
2023-05-23T16:15:38.490Z,11.40
2023-05-23T16:17:10.551Z,13.00
2023-05-23T16:18:42.579Z,10.80
2023-05-23T16:20:14.626Z,13.20
2023-05-23T16:21:46.712Z,13.80
2023-05-23T16:23:18.556Z,11.00
2023-05-23T16:24:50.504Z,13.40
2023-05-23T16:26:22.911Z,12.00
2023-05-23T16:27:55.051Z,20.40
2023-05-23T16:29:27.388Z,15.60
2023-05-23T16:30:59.386Z,19.20
2023-05-23T16:32:31.434Z,19.40
2023-05-23T16:34:03.512Z,20.60
2023-05-23T16:35:35.745Z,25.40
2023-05-23T16:37:07.848Z,24.20
2023-05-23T16:38:40.397Z,24.40
2023-05-23T16:40:12.576Z,24.60
2023-05-23T16:41:44.561Z,28.20
2023-05-23T16:43:16.460Z,28.60
2023-05-23T16:44:48.426Z,31.00
2023-05-23T16:46:22.466Z,32.20
2023-05-23T16:47:54.406Z,34.40
2023-05-23T16:49:26.461Z,33.40
2023-05-23T16:50:58.495Z,33.40
2023-05-23T16:52:30.856Z,35.00
2023-05-23T16:54:02.778Z,35.50
2023-05-23T16:55:34.857Z,40.50
2023-05-23T16:57:07.151Z,43.50
2023-05-23T16:58:39.174Z,45.25
2023-05-23T17:00:11.667Z,45.50
2023-05-23T17:01:43.939Z,51.75
2023-05-23T17:03:16.379Z,50.50
2023-05-23T17:04:48.624Z,52.25
2023-05-23T17:06:20.609Z,54.75
2023-05-23T17:07:52.667Z,67.25
2023-05-23T17:09:24.611Z,61.00
2023-05-23T17:10:56.902Z,65.50
2023-05-23T17:12:28.937Z,68.25
2023-05-23T17:14:00.964Z,74.00
2023-05-23T17:15:33.036Z,69.80
2023-05-23T17:17:05.577Z,79.60
2023-05-23T17:18:37.484Z,70.75
2023-05-23T17:20:09.716Z,76.20
2023-05-23T17:21:41.774Z,90.00
2023-05-23T17:23:13.727Z,87.00
2023-05-23T17:24:45.753Z,89.50
2023-05-23T17:26:19.628Z,88.75
2023-05-23T17:27:51.838Z,100.00
2023-05-23T17:29:24.102Z,90.00
2023-05-23T17:30:56.293Z,90.00
2023-05-23T17:32:28.627Z,88.75
2023-05-23T17:34:00.733Z,89.25
2023-05-23T17:35:32.719Z,88.00
2023-05-23T17:37:04.768Z,94.75
2023-05-23T17:38:38.692Z,90.25
2023-05-23T17:40:11.785Z,90.00
2023-05-23T17:41:44.186Z,88.00
2023-05-23T17:43:16.584Z,91.00
2023-05-23T17:44:49.061Z,91.75
2023-05-23T17:46:21.508Z,93.00
2023-05-23T17:47:53.724Z,98.00
2023-05-23T17:49:26.131Z,95.25
2023-05-23T17:50:58.123Z,90.75
2023-05-23T17:52:30.006Z,94.50
2023-05-23T17:54:04.316Z,98.75
2023-05-23T17:55:36.219Z,102.00
2023-05-23T17:57:08.380Z,102.00
2023-05-23T17:58:42.473Z,109.75
2023-05-23T18:00:16.530Z,97.00
2023-05-23T18:01:48.775Z,107.00
2023-05-23T18:03:20.694Z,100.50
2023-05-23T18:04:52.619Z,109.00
2023-05-23T18:06:24.606Z,98.75
2023-05-23T18:07:57.009Z,103.50
2023-05-23T18:09:29.098Z,104.00
2023-05-23T18:11:01.125Z,95.75
2023-05-23T18:12:32.976Z,102.25
2023-05-23T18:14:04.952Z,95.50
2023-05-23T18:15:36.856Z,94.50
2023-05-23T18:17:10.019Z,102.75
2023-05-23T18:18:42.059Z,99.75
2023-05-23T18:20:14.121Z,100.75
2023-05-23T18:21:46.182Z,94.25
2023-05-23T18:23:18.592Z,100.50
2023-05-23T18:24:50.834Z,113.75
2023-05-23T18:26:23.090Z,94.25
2023-05-23T18:27:58.561Z,106.00
2023-05-23T18:29:30.781Z,101.50
2023-05-23T18:31:02.644Z,103.50
2023-05-23T18:32:34.609Z,102.75
2023-05-23T18:34:06.814Z,101.50
2023-05-23T18:35:38.834Z,103.75
2023-05-23T18:37:10.765Z,89.50
2023-05-23T18:38:42.781Z,101.00
2023-05-23T18:40:14.952Z,101.50
2023-05-23T18:41:47.341Z,93.75
2023-05-23T18:43:19.589Z,98.50
2023-05-23T18:44:52.126Z,104.75
2023-05-23T18:46:25.687Z,94.50
2023-05-23T18:47:58.881Z,106.25
2023-05-23T18:49:30.928Z,110.00
2023-05-23T18:51:03.512Z,107.50
2023-05-23T18:52:37.389Z,108.75
2023-05-23T18:54:09.633Z,107.75
2023-05-23T18:55:41.821Z,92.25
2023-05-23T18:57:13.743Z,99.00
2023-05-23T18:58:47.195Z,92.75
2023-05-23T19:00:19.794Z,95.50
2023-05-23T19:01:51.851Z,103.00
2023-05-23T19:03:23.964Z,104.25
2023-05-23T19:04:56.123Z,91.75
2023-05-23T19:06:28.008Z,96.50
2023-05-23T19:07:59.990Z,108.00
2023-05-23T19:09:32.372Z,100.25
2023-05-23T19:11:05.751Z,101.00
2023-05-23T19:12:39.626Z,104.00
2023-05-23T19:14:11.666Z,112.75
2023-05-23T19:15:45.455Z,101.50
2023-05-23T19:17:17.646Z,91.00
2023-05-23T19:18:49.774Z,109.75
2023-05-23T19:20:22.401Z,104.50
2023-05-23T19:21:54.354Z,103.75
2023-05-23T19:23:26.698Z,106.25
2023-05-23T19:24:58.603Z,107.25
2023-05-23T19:26:30.681Z,100.00
2023-05-23T19:28:02.615Z,105.00
2023-05-23T19:29:34.630Z,107.00
2023-05-23T19:31:07.931Z,101.00
2023-05-23T19:32:40.097Z,103.75
2023-05-23T19:34:12.941Z,107.25
2023-05-23T19:35:44.969Z,105.00
2023-05-23T19:37:17.489Z,114.75
2023-05-23T19:38:49.796Z,107.25
2023-05-23T19:40:22.044Z,112.50
2023-05-23T19:41:54.265Z,114.25
2023-05-23T19:43:26.138Z,105.00
2023-05-23T19:44:58.358Z,106.50
2023-05-23T19:46:30.269Z,113.25
2023-05-23T19:48:02.413Z,112.75
2023-05-23T19:49:34.913Z,104.00
2023-05-23T19:51:06.939Z,117.75
2023-05-23T19:52:39.662Z,95.50
2023-05-23T19:54:11.607Z,104.00
2023-05-23T19:55:43.583Z,110.75
2023-05-23T19:57:15.547Z,103.75
2023-05-23T19:58:47.510Z,110.00
2023-05-23T20:00:19.716Z,101.00
2023-05-23T20:01:51.597Z,106.00
2023-05-23T20:03:24.123Z,107.00
2023-05-23T20:04:56.623Z,98.00
2023-05-23T20:06:28.776Z,102.00
2023-05-23T20:08:01.680Z,94.00
2023-05-23T20:09:33.571Z,99.00
2023-05-23T20:11:05.641Z,95.00
2023-05-23T20:12:37.556Z,81.25
2023-05-23T20:14:09.504Z,85.50
2023-05-23T20:15:41.447Z,101.75
2023-05-23T20:17:13.419Z,96.75
2023-05-23T20:18:45.415Z,86.75
2023-05-23T20:20:17.792Z,84.50
2023-05-23T20:21:50.138Z,90.25
2023-05-23T20:23:22.382Z,85.50
2023-05-23T20:24:54.390Z,78.50
2023-05-23T20:26:27.002Z,86.75
2023-05-23T20:27:58.968Z,78.50
2023-05-23T20:29:31.274Z,76.50
2023-05-23T20:31:03.507Z,82.00
2023-05-23T20:32:35.501Z,78.00
2023-05-23T20:34:07.399Z,81.50
2023-05-23T20:35:41.404Z,75.00
2023-05-23T20:37:14.692Z,73.75
2023-05-23T20:38:47.854Z,68.80
2023-05-23T20:40:20.731Z,83.00
2023-05-23T20:41:53.785Z,72.80
2023-05-23T20:43:26.001Z,84.00
2023-05-23T20:44:58.317Z,78.40
2023-05-23T20:46:30.247Z,81.00
2023-05-23T20:48:02.223Z,78.50
2023-05-23T20:49:34.997Z,86.75
2023-05-23T20:51:07.748Z,84.50
2023-05-23T20:52:41.589Z,89.25
2023-05-23T20:54:13.577Z,89.00
2023-05-23T20:55:45.732Z,89.50
2023-05-23T20:57:17.745Z,81.50
2023-05-23T20:58:49.671Z,88.75
2023-05-23T21:00:21.829Z,74.50
2023-05-23T21:01:53.858Z,87.75
2023-05-23T21:03:25.941Z,91.00
2023-05-23T21:04:57.872Z,79.75
2023-05-23T21:06:29.826Z,82.75
2023-05-23T21:08:01.916Z,83.25
2023-05-23T21:09:33.824Z,88.00
2023-05-23T21:11:13.588Z,87.00
2023-05-23T21:12:51.092Z,85.50
2023-05-23T21:14:23.493Z,84.75
2023-05-23T21:15:55.522Z,86.50
2023-05-23T21:17:27.543Z,81.00
2023-05-23T21:18:59.590Z,82.00
2023-05-23T21:20:31.728Z,85.25
2023-05-23T21:22:03.713Z,85.25
2023-05-23T21:23:35.657Z,81.50
2023-05-23T21:25:07.913Z,91.75
2023-05-23T21:26:40.122Z,74.80
2023-05-23T21:28:11.999Z,82.25
2023-05-23T21:29:45.244Z,79.75
2023-05-23T21:31:21.611Z,82.50
2023-05-23T21:32:58.910Z,74.60
2023-05-23T21:34:30.862Z,76.75
2023-05-23T21:36:02.808Z,74.60
2023-05-23T21:37:34.770Z,70.00
2023-05-23T21:39:06.649Z,78.80
2023-05-23T21:40:38.708Z,71.00
2023-05-23T21:42:10.574Z,72.40
2023-05-23T21:43:43.345Z,73.60
2023-05-23T21:45:15.260Z,73.00
2023-05-23T21:46:47.339Z,63.00
2023-05-23T21:48:19.432Z,69.00
2023-05-23T21:49:51.408Z,67.40
2023-05-23T21:51:23.421Z,67.75
2023-05-23T21:52:55.342Z,63.25
2023-05-23T21:54:27.327Z,76.40
2023-05-23T21:55:59.341Z,70.00
2023-05-23T21:57:31.328Z,64.50
2023-05-23T21:59:04.339Z,62.75
2023-05-23T22:00:36.264Z,55.00
2023-05-23T22:02:08.225Z,67.50
2023-05-23T22:03:40.413Z,55.50
2023-05-23T22:05:13.345Z,80.40
2023-05-23T22:06:45.345Z,79.20
2023-05-23T22:08:17.248Z,76.60
2023-05-23T22:09:51.258Z,81.60
2023-05-23T22:11:23.146Z,59.25
2023-05-23T22:12:55.074Z,70.50
2023-05-23T22:14:27.099Z,55.75
2023-05-23T22:15:59.113Z,52.75
2023-05-23T22:17:34.177Z,48.25
2023-05-23T22:19:06.329Z,48.00
2023-05-23T22:20:39.331Z,48.00
2023-05-23T22:22:12.403Z,52.50
2023-05-23T22:23:44.266Z,46.50
2023-05-23T22:25:16.934Z,47.50
2023-05-23T22:26:48.932Z,50.00
2023-05-23T22:28:20.931Z,47.25
2023-05-23T22:29:52.927Z,44.25
2023-05-23T22:31:25.056Z,48.75
2023-05-23T22:32:58.068Z,52.25
2023-05-23T22:34:30.179Z,50.00
